sensor_id;sensor_type;location;lat;lon;timestamp;P1;durP1;ratioP1;P2;durP2;ratioP2
3627;SDS011;1830;49.000;12.074;2022-08-11T00:01:09;7.73;;;4.83;;
3627;SDS011;1830;49.000;12.074;2022-08-11T00:03:42;6.47;;;4.40;;
3627;SDS011;1830;49.000;12.074;2022-08-11T00:06:11;6.20;;;4.50;;
3627;SDS011;1830;49.000;12.074;2022-08-11T00:08:39;4.57;;;4.07;;
3627;SDS011;1830;49.000;12.074;2022-08-11T00:11:08;6.33;;;4.57;;
3627;SDS011;1830;49.000;12.074;2022-08-11T00:13:38;7.93;;;4.53;;
3627;SDS011;1830;49.000;12.074;2022-08-11T00:16:12;5.50;;;4.37;;
3627;SDS011;1830;49.000;12.074;2022-08-11T00:18:42;8.03;;;4.63;;
3627;SDS011;1830;49.000;12.074;2022-08-11T00:21:11;7.97;;;4.70;;
3627;SDS011;1830;49.000;12.074;2022-08-11T00:23:43;10.03;;;4.80;;
3627;SDS011;1830;49.000;12.074;2022-08-11T00:26:11;9.70;;;4.60;;
3627;SDS011;1830;49.000;12.074;2022-08-11T00:28:40;7.80;;;4.43;;
3627;SDS011;1830;49.000;12.074;2022-08-11T00:31:08;9.50;;;4.73;;
3627;SDS011;1830;49.000;12.074;2022-08-11T00:33:46;5.70;;;3.73;;
3627;SDS011;1830;49.000;12.074;2022-08-11T00:36:15;10.93;;;4.27;;
3627;SDS011;1830;49.000;12.074;2022-08-11T00:38:44;5.53;;;4.40;;
3627;SDS011;1830;49.000;12.074;2022-08-11T00:41:15;7.93;;;4.87;;
3627;SDS011;1830;49.000;12.074;2022-08-11T00:43:49;7.70;;;5.03;;
3627;SDS011;1830;49.000;12.074;2022-08-11T00:46:33;7.33;;;4.07;;
3627;SDS011;1830;49.000;12.074;2022-08-11T00:49:10;19.63;;;4.30;;
3627;SDS011;1830;49.000;12.074;2022-08-11T00:51:47;14.20;;;4.63;;
3627;SDS011;1830;49.000;12.074;2022-08-11T00:54:30;7.30;;;4.37;;
3627;SDS011;1830;49.000;12.074;2022-08-11T01:00:22;5.93;;;4.03;;
3627;SDS011;1830;49.000;12.074;2022-08-11T01:05:48;5.17;;;4.20;;
3627;SDS011;1830;49.000;12.074;2022-08-11T01:11:36;9.10;;;4.50;;
3627;SDS011;1830;49.000;12.074;2022-08-11T01:17:52;6.27;;;4.47;;
3627;SDS011;1830;49.000;12.074;2022-08-11T01:21:11;6.73;;;3.90;;
3627;SDS011;1830;49.000;12.074;2022-08-11T01:24:02;6.70;;;4.40;;
3627;SDS011;1830;49.000;12.074;2022-08-11T01:30:16;10.53;;;4.80;;
3627;SDS011;1830;49.000;12.074;2022-08-11T01:33:21;7.80;;;4.40;;
3627;SDS011;1830;49.000;12.074;2022-08-11T01:36:44;7.67;;;4.20;;
3627;SDS011;1830;49.000;12.074;2022-08-11T01:39:42;7.30;;;4.10;;
3627;SDS011;1830;49.000;12.074;2022-08-11T01:42:48;8.40;;;4.67;;
3627;SDS011;1830;49.000;12.074;2022-08-11T01:45:45;5.73;;;4.43;;
3627;SDS011;1830;49.000;12.074;2022-08-11T01:48:19;9.87;;;4.47;;
3627;SDS011;1830;49.000;12.074;2022-08-11T01:51:02;5.73;;;3.83;;
3627;SDS011;1830;49.000;12.074;2022-08-11T01:53:43;7.33;;;4.40;;
3627;SDS011;1830;49.000;12.074;2022-08-11T01:56:21;5.20;;;4.13;;
3627;SDS011;1830;49.000;12.074;2022-08-11T01:58:59;8.00;;;4.53;;
3627;SDS011;1830;49.000;12.074;2022-08-11T02:01:40;5.50;;;3.77;;
3627;SDS011;1830;49.000;12.074;2022-08-11T02:04:18;8.63;;;4.80;;
3627;SDS011;1830;49.000;12.074;2022-08-11T02:06:52;7.63;;;4.03;;
3627;SDS011;1830;49.000;12.074;2022-08-11T02:09:39;7.03;;;4.20;;
3627;SDS011;1830;49.000;12.074;2022-08-11T02:12:25;8.00;;;4.30;;
3627;SDS011;1830;49.000;12.074;2022-08-11T02:15:07;6.07;;;4.53;;
3627;SDS011;1830;49.000;12.074;2022-08-11T02:17:46;6.97;;;4.83;;
3627;SDS011;1830;49.000;12.074;2022-08-11T02:20:19;6.87;;;4.20;;
3627;SDS011;1830;49.000;12.074;2022-08-11T02:23:12;5.27;;;4.40;;
3627;SDS011;1830;49.000;12.074;2022-08-11T02:26:08;6.70;;;4.33;;
3627;SDS011;1830;49.000;12.074;2022-08-11T02:28:43;5.50;;;4.73;;
3627;SDS011;1830;49.000;12.074;2022-08-11T02:31:28;6.23;;;4.27;;
3627;SDS011;1830;49.000;12.074;2022-08-11T02:34:24;8.13;;;4.93;;
3627;SDS011;1830;49.000;12.074;2022-08-11T02:36:59;5.80;;;4.10;;
3627;SDS011;1830;49.000;12.074;2022-08-11T02:39:40;6.23;;;4.83;;
3627;SDS011;1830;49.000;12.074;2022-08-11T02:42:19;13.60;;;4.13;;
3627;SDS011;1830;49.000;12.074;2022-08-11T02:44:58;6.93;;;4.60;;
3627;SDS011;1830;49.000;12.074;2022-08-11T02:47:38;6.90;;;4.53;;
3627;SDS011;1830;49.000;12.074;2022-08-11T02:50:30;8.27;;;4.70;;
3627;SDS011;1830;49.000;12.074;2022-08-11T02:53:05;9.70;;;4.13;;
3627;SDS011;1830;49.000;12.074;2022-08-11T02:55:40;5.70;;;4.97;;
3627;SDS011;1830;49.000;12.074;2022-08-11T02:58:22;5.83;;;4.60;;
3627;SDS011;1830;49.000;12.074;2022-08-11T03:01:02;7.07;;;4.87;;
3627;SDS011;1830;49.000;12.074;2022-08-11T03:03:42;4.30;;;3.67;;
3627;SDS011;1830;49.000;12.074;2022-08-11T03:06:19;12.23;;;4.40;;
3627;SDS011;1830;49.000;12.074;2022-08-11T03:08:58;5.70;;;4.77;;
3627;SDS011;1830;49.000;12.074;2022-08-11T03:11:41;8.50;;;5.30;;
3627;SDS011;1830;49.000;12.074;2022-08-11T03:14:41;7.40;;;5.00;;
3627;SDS011;1830;49.000;12.074;2022-08-11T03:17:31;5.40;;;4.50;;
3627;SDS011;1830;49.000;12.074;2022-08-11T03:20:22;10.63;;;5.03;;
3627;SDS011;1830;49.000;12.074;2022-08-11T03:22:57;10.90;;;5.30;;
3627;SDS011;1830;49.000;12.074;2022-08-11T03:25:33;8.37;;;5.30;;
3627;SDS011;1830;49.000;12.074;2022-08-11T03:28:19;5.10;;;4.50;;
3627;SDS011;1830;49.000;12.074;2022-08-11T03:30:55;10.50;;;5.07;;
3627;SDS011;1830;49.000;12.074;2022-08-11T03:33:43;12.67;;;5.40;;
3627;SDS011;1830;49.000;12.074;2022-08-11T03:36:39;10.03;;;5.00;;
3627;SDS011;1830;49.000;12.074;2022-08-11T03:39:31;11.30;;;4.90;;
3627;SDS011;1830;49.000;12.074;2022-08-11T03:42:09;6.10;;;4.80;;
3627;SDS011;1830;49.000;12.074;2022-08-11T03:44:49;8.00;;;4.70;;
3627;SDS011;1830;49.000;12.074;2022-08-11T03:47:39;9.10;;;5.33;;
3627;SDS011;1830;49.000;12.074;2022-08-11T03:50:21;7.83;;;4.60;;
3627;SDS011;1830;49.000;12.074;2022-08-11T03:52:57;8.00;;;4.97;;
3627;SDS011;1830;49.000;12.074;2022-08-11T03:55:40;9.10;;;5.33;;
3627;SDS011;1830;49.000;12.074;2022-08-11T03:58:42;7.77;;;5.13;;
3627;SDS011;1830;49.000;12.074;2022-08-11T04:04:30;9.53;;;5.10;;
3627;SDS011;1830;49.000;12.074;2022-08-11T04:10:31;10.30;;;5.27;;
3627;SDS011;1830;49.000;12.074;2022-08-11T04:13:34;8.37;;;5.43;;
3627;SDS011;1830;49.000;12.074;2022-08-11T04:16:52;7.60;;;5.80;;
3627;SDS011;1830;49.000;12.074;2022-08-11T04:19:50;11.90;;;5.83;;
3627;SDS011;1830;49.000;12.074;2022-08-11T04:22:48;6.67;;;5.50;;
3627;SDS011;1830;49.000;12.074;2022-08-11T04:25:42;7.30;;;5.20;;
3627;SDS011;1830;49.000;12.074;2022-08-11T04:28:43;7.70;;;5.13;;
3627;SDS011;1830;49.000;12.074;2022-08-11T04:31:27;8.90;;;4.90;;
3627;SDS011;1830;49.000;12.074;2022-08-11T04:34:11;9.70;;;5.70;;
3627;SDS011;1830;49.000;12.074;2022-08-11T04:37:21;11.33;;;5.70;;
3627;SDS011;1830;49.000;12.074;2022-08-11T04:43:42;9.90;;;5.40;;
3627;SDS011;1830;49.000;12.074;2022-08-11T04:46:47;7.60;;;5.30;;
3627;SDS011;1830;49.000;12.074;2022-08-11T04:49:29;7.67;;;4.90;;
3627;SDS011;1830;49.000;12.074;2022-08-11T04:52:39;17.00;;;5.30;;
3627;SDS011;1830;49.000;12.074;2022-08-11T04:56:00;6.63;;;4.97;;
3627;SDS011;1830;49.000;12.074;2022-08-11T04:59:12;11.23;;;5.63;;
3627;SDS011;1830;49.000;12.074;2022-08-11T05:05:18;14.70;;;5.47;;
3627;SDS011;1830;49.000;12.074;2022-08-11T05:08:27;6.63;;;5.40;;
3627;SDS011;1830;49.000;12.074;2022-08-11T05:11:31;35.83;;;5.30;;
3627;SDS011;1830;49.000;12.074;2022-08-11T05:14:29;9.10;;;5.47;;
3627;SDS011;1830;49.000;12.074;2022-08-11T05:17:21;9.60;;;5.30;;
3627;SDS011;1830;49.000;12.074;2022-08-11T05:20:09;12.60;;;5.20;;
3627;SDS011;1830;49.000;12.074;2022-08-11T05:22:54;11.97;;;5.00;;
3627;SDS011;1830;49.000;12.074;2022-08-11T05:25:45;9.00;;;5.37;;
3627;SDS011;1830;49.000;12.074;2022-08-11T05:28:31;9.63;;;6.00;;
3627;SDS011;1830;49.000;12.074;2022-08-11T05:31:18;7.30;;;5.30;;
3627;SDS011;1830;49.000;12.074;2022-08-11T05:34:08;12.07;;;4.83;;
3627;SDS011;1830;49.000;12.074;2022-08-11T05:36:56;14.37;;;5.27;;
3627;SDS011;1830;49.000;12.074;2022-08-11T05:39:29;11.50;;;5.87;;
3627;SDS011;1830;49.000;12.074;2022-08-11T05:42:20;14.70;;;5.20;;
3627;SDS011;1830;49.000;12.074;2022-08-11T05:45:09;19.63;;;5.03;;
3627;SDS011;1830;49.000;12.074;2022-08-11T05:47:55;6.73;;;4.83;;
3627;SDS011;1830;49.000;12.074;2022-08-11T05:50:40;21.23;;;5.60;;
3627;SDS011;1830;49.000;12.074;2022-08-11T05:53:32;9.23;;;5.37;;
3627;SDS011;1830;49.000;12.074;2022-08-11T05:56:16;6.93;;;4.90;;
3627;SDS011;1830;49.000;12.074;2022-08-11T05:58:46;13.53;;;5.30;;
3627;SDS011;1830;49.000;12.074;2022-08-11T06:01:20;5.97;;;4.57;;
3627;SDS011;1830;49.000;12.074;2022-08-11T06:03:48;7.33;;;5.60;;
3627;SDS011;1830;49.000;12.074;2022-08-11T06:06:34;8.30;;;5.30;;
3627;SDS011;1830;49.000;12.074;2022-08-11T06:09:04;13.00;;;4.90;;
3627;SDS011;1830;49.000;12.074;2022-08-11T06:11:35;18.43;;;5.53;;
3627;SDS011;1830;49.000;12.074;2022-08-11T06:14:05;15.17;;;5.80;;
3627;SDS011;1830;49.000;12.074;2022-08-11T06:16:34;8.57;;;5.10;;
3627;SDS011;1830;49.000;12.074;2022-08-11T06:19:03;10.43;;;4.80;;
3627;SDS011;1830;49.000;12.074;2022-08-11T06:21:31;8.63;;;5.20;;
3627;SDS011;1830;49.000;12.074;2022-08-11T06:23:59;6.40;;;5.03;;
3627;SDS011;1830;49.000;12.074;2022-08-11T06:26:29;13.80;;;4.87;;
3627;SDS011;1830;49.000;12.074;2022-08-11T06:28:56;6.93;;;4.47;;
3627;SDS011;1830;49.000;12.074;2022-08-11T06:31:26;7.53;;;4.83;;
3627;SDS011;1830;49.000;12.074;2022-08-11T06:33:56;6.30;;;5.00;;
3627;SDS011;1830;49.000;12.074;2022-08-11T06:36:31;7.40;;;5.03;;
3627;SDS011;1830;49.000;12.074;2022-08-11T06:39:08;10.17;;;4.90;;
3627;SDS011;1830;49.000;12.074;2022-08-11T06:41:47;13.10;;;4.90;;
3627;SDS011;1830;49.000;12.074;2022-08-11T06:44:26;7.60;;;4.93;;
3627;SDS011;1830;49.000;12.074;2022-08-11T06:47:04;11.57;;;4.80;;
3627;SDS011;1830;49.000;12.074;2022-08-11T06:49:35;9.70;;;4.10;;
3627;SDS011;1830;49.000;12.074;2022-08-11T06:52:27;12.00;;;4.50;;
3627;SDS011;1830;49.000;12.074;2022-08-11T06:54:57;5.70;;;4.43;;
3627;SDS011;1830;49.000;12.074;2022-08-11T06:57:31;8.30;;;4.70;;
3627;SDS011;1830;49.000;12.074;2022-08-11T07:00:17;9.00;;;3.93;;
3627;SDS011;1830;49.000;12.074;2022-08-11T07:02:56;10.93;;;4.80;;
3627;SDS011;1830;49.000;12.074;2022-08-11T07:05:28;10.17;;;4.30;;
3627;SDS011;1830;49.000;12.074;2022-08-11T07:08:24;10.43;;;4.70;;
3627;SDS011;1830;49.000;12.074;2022-08-11T07:11:30;6.90;;;4.60;;
3627;SDS011;1830;49.000;12.074;2022-08-11T07:14:33;5.80;;;4.40;;
3627;SDS011;1830;49.000;12.074;2022-08-11T07:17:21;10.83;;;4.60;;
3627;SDS011;1830;49.000;12.074;2022-08-11T07:19:52;12.53;;;5.00;;
3627;SDS011;1830;49.000;12.074;2022-08-11T07:22:39;10.13;;;4.50;;
3627;SDS011;1830;49.000;12.074;2022-08-11T07:25:26;6.70;;;4.33;;
3627;SDS011;1830;49.000;12.074;2022-08-11T07:28:13;10.67;;;4.60;;
3627;SDS011;1830;49.000;12.074;2022-08-11T07:31:03;7.93;;;4.57;;
3627;SDS011;1830;49.000;12.074;2022-08-11T07:33:37;7.73;;;3.90;;
3627;SDS011;1830;49.000;12.074;2022-08-11T07:36:10;10.73;;;4.10;;
3627;SDS011;1830;49.000;12.074;2022-08-11T07:38:40;4.33;;;3.63;;
3627;SDS011;1830;49.000;12.074;2022-08-11T07:41:11;7.30;;;3.90;;
3627;SDS011;1830;49.000;12.074;2022-08-11T07:43:39;4.60;;;3.90;;
3627;SDS011;1830;49.000;12.074;2022-08-11T07:46:07;10.50;;;4.50;;
3627;SDS011;1830;49.000;12.074;2022-08-11T07:48:53;11.53;;;4.33;;
3627;SDS011;1830;49.000;12.074;2022-08-11T07:51:40;15.03;;;4.00;;
3627;SDS011;1830;49.000;12.074;2022-08-11T07:54:25;7.17;;;3.43;;
3627;SDS011;1830;49.000;12.074;2022-08-11T07:56:53;8.93;;;4.17;;
3627;SDS011;1830;49.000;12.074;2022-08-11T07:59:20;4.63;;;3.80;;
3627;SDS011;1830;49.000;12.074;2022-08-11T08:02:06;13.70;;;4.17;;
3627;SDS011;1830;49.000;12.074;2022-08-11T08:04:52;7.13;;;4.30;;
3627;SDS011;1830;49.000;12.074;2022-08-11T08:07:39;10.03;;;4.23;;
3627;SDS011;1830;49.000;12.074;2022-08-11T08:10:23;7.73;;;3.77;;
3627;SDS011;1830;49.000;12.074;2022-08-11T08:13:08;14.10;;;4.10;;
3627;SDS011;1830;49.000;12.074;2022-08-11T08:15:53;8.80;;;3.50;;
3627;SDS011;1830;49.000;12.074;2022-08-11T08:18:37;6.47;;;3.40;;
3627;SDS011;1830;49.000;12.074;2022-08-11T08:21:05;9.33;;;3.43;;
3627;SDS011;1830;49.000;12.074;2022-08-11T08:23:41;13.83;;;3.30;;
3627;SDS011;1830;49.000;12.074;2022-08-11T08:26:11;9.50;;;4.20;;
3627;SDS011;1830;49.000;12.074;2022-08-11T08:28:54;7.13;;;3.53;;
3627;SDS011;1830;49.000;12.074;2022-08-11T08:31:43;7.40;;;3.77;;
3627;SDS011;1830;49.000;12.074;2022-08-11T08:34:10;5.13;;;3.93;;
3627;SDS011;1830;49.000;12.074;2022-08-11T08:36:40;10.23;;;4.23;;
3627;SDS011;1830;49.000;12.074;2022-08-11T08:39:09;10.60;;;4.07;;
3627;SDS011;1830;49.000;12.074;2022-08-11T08:41:38;5.60;;;3.40;;
3627;SDS011;1830;49.000;12.074;2022-08-11T08:44:07;5.23;;;3.90;;
3627;SDS011;1830;49.000;12.074;2022-08-11T08:46:36;10.83;;;3.60;;
3627;SDS011;1830;49.000;12.074;2022-08-11T08:49:08;5.70;;;3.90;;
3627;SDS011;1830;49.000;12.074;2022-08-11T08:51:40;6.40;;;4.23;;
3627;SDS011;1830;49.000;12.074;2022-08-11T08:54:11;10.07;;;3.93;;
3627;SDS011;1830;49.000;12.074;2022-08-11T08:56:43;6.30;;;4.00;;
3627;SDS011;1830;49.000;12.074;2022-08-11T08:59:11;13.00;;;3.60;;
3627;SDS011;1830;49.000;12.074;2022-08-11T09:01:40;8.67;;;3.73;;
3627;SDS011;1830;49.000;12.074;2022-08-11T09:04:11;5.40;;;3.50;;
3627;SDS011;1830;49.000;12.074;2022-08-11T09:06:39;7.57;;;3.20;;
3627;SDS011;1830;49.000;12.074;2022-08-11T09:09:07;5.87;;;3.30;;
3627;SDS011;1830;49.000;12.074;2022-08-11T09:11:37;7.63;;;4.03;;
3627;SDS011;1830;49.000;12.074;2022-08-11T09:14:18;7.03;;;3.63;;
3627;SDS011;1830;49.000;12.074;2022-08-11T09:16:46;5.90;;;3.27;;
3627;SDS011;1830;49.000;12.074;2022-08-11T09:19:16;23.83;;;4.13;;
3627;SDS011;1830;49.000;12.074;2022-08-11T09:21:46;8.60;;;3.93;;
3627;SDS011;1830;49.000;12.074;2022-08-11T09:24:36;4.97;;;3.40;;
3627;SDS011;1830;49.000;12.074;2022-08-11T09:27:23;11.27;;;3.97;;
3627;SDS011;1830;49.000;12.074;2022-08-11T09:29:51;8.90;;;3.63;;
3627;SDS011;1830;49.000;12.074;2022-08-11T09:32:19;8.60;;;3.67;;
3627;SDS011;1830;49.000;12.074;2022-08-11T09:34:47;4.60;;;3.40;;
3627;SDS011;1830;49.000;12.074;2022-08-11T09:37:17;6.13;;;4.03;;
3627;SDS011;1830;49.000;12.074;2022-08-11T09:40:03;4.37;;;3.53;;
3627;SDS011;1830;49.000;12.074;2022-08-11T09:42:52;3.83;;;3.00;;
3627;SDS011;1830;49.000;12.074;2022-08-11T09:45:36;4.27;;;3.60;;
3627;SDS011;1830;49.000;12.074;2022-08-11T09:48:04;5.87;;;3.50;;
3627;SDS011;1830;49.000;12.074;2022-08-11T09:50:31;4.50;;;3.40;;
3627;SDS011;1830;49.000;12.074;2022-08-11T09:52:59;5.43;;;3.60;;
3627;SDS011;1830;49.000;12.074;2022-08-11T09:55:30;13.23;;;4.70;;
3627;SDS011;1830;49.000;12.074;2022-08-11T09:57:59;8.20;;;4.23;;
3627;SDS011;1830;49.000;12.074;2022-08-11T10:00:37;7.57;;;3.97;;
3627;SDS011;1830;49.000;12.074;2022-08-11T10:03:05;9.93;;;3.80;;
3627;SDS011;1830;49.000;12.074;2022-08-11T10:05:35;7.90;;;3.40;;
3627;SDS011;1830;49.000;12.074;2022-08-11T10:08:22;9.90;;;3.70;;
3627;SDS011;1830;49.000;12.074;2022-08-11T10:10:53;4.80;;;3.70;;
3627;SDS011;1830;49.000;12.074;2022-08-11T10:13:25;4.67;;;3.47;;
3627;SDS011;1830;49.000;12.074;2022-08-11T10:15:59;9.83;;;3.43;;
3627;SDS011;1830;49.000;12.074;2022-08-11T10:18:29;6.80;;;3.40;;
3627;SDS011;1830;49.000;12.074;2022-08-11T10:21:17;5.45;;;3.33;;
3627;SDS011;1830;49.000;12.074;2022-08-11T10:23:52;3.85;;;3.40;;
3627;SDS011;1830;49.000;12.074;2022-08-11T10:26:37;8.70;;;3.83;;
3627;SDS011;1830;49.000;12.074;2022-08-11T10:29:19;8.38;;;3.70;;
3627;SDS011;1830;49.000;12.074;2022-08-11T10:32:05;5.33;;;3.50;;
3627;SDS011;1830;49.000;12.074;2022-08-11T10:34:51;4.47;;;3.20;;
3627;SDS011;1830;49.000;12.074;2022-08-11T10:37:20;9.10;;;3.80;;
3627;SDS011;1830;49.000;12.074;2022-08-11T10:39:49;8.48;;;3.60;;
3627;SDS011;1830;49.000;12.074;2022-08-11T10:42:17;19.43;;;3.70;;
3627;SDS011;1830;49.000;12.074;2022-08-11T10:45:04;9.82;;;3.97;;
3627;SDS011;1830;49.000;12.074;2022-08-11T10:47:53;9.67;;;3.63;;
3627;SDS011;1830;49.000;12.074;2022-08-11T10:50:20;8.45;;;3.50;;
3627;SDS011;1830;49.000;12.074;2022-08-11T10:53:05;6.57;;;3.88;;
3627;SDS011;1830;49.000;12.074;2022-08-11T10:55:50;5.43;;;3.73;;
3627;SDS011;1830;49.000;12.074;2022-08-11T10:58:36;4.65;;;3.60;;
3627;SDS011;1830;49.000;12.074;2022-08-11T11:01:20;6.00;;;4.17;;
3627;SDS011;1830;49.000;12.074;2022-08-11T11:03:49;6.00;;;3.42;;
3627;SDS011;1830;49.000;12.074;2022-08-11T11:06:21;5.82;;;3.78;;
3627;SDS011;1830;49.000;12.074;2022-08-11T11:08:52;4.03;;;3.45;;
3627;SDS011;1830;49.000;12.074;2022-08-11T11:11:24;5.63;;;3.38;;
3627;SDS011;1830;49.000;12.074;2022-08-11T11:14:14;5.47;;;3.17;;
3627;SDS011;1830;49.000;12.074;2022-08-11T11:17:03;8.75;;;3.33;;
3627;SDS011;1830;49.000;12.074;2022-08-11T11:19:52;5.57;;;3.30;;
3627;SDS011;1830;49.000;12.074;2022-08-11T11:22:24;4.45;;;2.58;;
3627;SDS011;1830;49.000;12.074;2022-08-11T11:25:15;5.70;;;3.20;;
3627;SDS011;1830;49.000;12.074;2022-08-11T11:27:51;4.28;;;3.00;;
3627;SDS011;1830;49.000;12.074;2022-08-11T11:30:32;11.85;;;3.53;;
3627;SDS011;1830;49.000;12.074;2022-08-11T11:33:07;6.60;;;3.20;;
3627;SDS011;1830;49.000;12.074;2022-08-11T11:35:45;4.63;;;2.95;;
3627;SDS011;1830;49.000;12.074;2022-08-11T11:38:20;6.15;;;3.38;;
3627;SDS011;1830;49.000;12.074;2022-08-11T11:40:48;6.57;;;3.15;;
3627;SDS011;1830;49.000;12.074;2022-08-11T11:43:35;7.50;;;2.80;;
3627;SDS011;1830;49.000;12.074;2022-08-11T11:46:03;4.18;;;2.83;;
3627;SDS011;1830;49.000;12.074;2022-08-11T11:48:33;5.40;;;3.13;;
3627;SDS011;1830;49.000;12.074;2022-08-11T11:51:00;7.82;;;3.20;;
3627;SDS011;1830;49.000;12.074;2022-08-11T11:53:28;4.00;;;2.70;;
3627;SDS011;1830;49.000;12.074;2022-08-11T11:55:55;5.55;;;2.72;;
3627;SDS011;1830;49.000;12.074;2022-08-11T11:58:22;3.08;;;2.20;;
3627;SDS011;1830;49.000;12.074;2022-08-11T12:01:07;4.63;;;2.60;;
3627;SDS011;1830;49.000;12.074;2022-08-11T12:03:43;8.13;;;2.80;;
3627;SDS011;1830;49.000;12.074;2022-08-11T12:06:12;3.95;;;3.10;;
3627;SDS011;1830;49.000;12.074;2022-08-11T12:08:40;6.72;;;3.25;;
3627;SDS011;1830;49.000;12.074;2022-08-11T12:11:09;3.22;;;2.70;;
3627;SDS011;1830;49.000;12.074;2022-08-11T12:13:56;12.85;;;2.95;;
3627;SDS011;1830;49.000;12.074;2022-08-11T12:16:24;4.68;;;2.90;;
3627;SDS011;1830;49.000;12.074;2022-08-11T12:18:54;5.65;;;3.00;;
3627;SDS011;1830;49.000;12.074;2022-08-11T12:21:23;6.78;;;2.90;;
3627;SDS011;1830;49.000;12.074;2022-08-11T12:23:52;5.63;;;2.40;;
3627;SDS011;1830;49.000;12.074;2022-08-11T12:26:38;11.15;;;3.28;;
3627;SDS011;1830;49.000;12.074;2022-08-11T12:29:23;5.28;;;2.80;;
3627;SDS011;1830;49.000;12.074;2022-08-11T12:31:51;3.55;;;2.90;;
3627;SDS011;1830;49.000;12.074;2022-08-11T12:34:20;5.80;;;2.72;;
3627;SDS011;1830;49.000;12.074;2022-08-11T12:36:50;5.95;;;3.17;;
3627;SDS011;1830;49.000;12.074;2022-08-11T12:39:22;4.22;;;2.60;;
3627;SDS011;1830;49.000;12.074;2022-08-11T12:42:10;8.32;;;2.90;;
3627;SDS011;1830;49.000;12.074;2022-08-11T12:44:59;6.18;;;2.53;;
3627;SDS011;1830;49.000;12.074;2022-08-11T12:47:45;4.65;;;2.13;;
3627;SDS011;1830;49.000;12.074;2022-08-11T12:50:34;3.33;;;2.30;;
3627;SDS011;1830;49.000;12.074;2022-08-11T12:53:19;21.67;;;3.65;;
3627;SDS011;1830;49.000;12.074;2022-08-11T12:55:49;5.53;;;2.65;;
3627;SDS011;1830;49.000;12.074;2022-08-11T12:58:35;7.13;;;2.60;;
3627;SDS011;1830;49.000;12.074;2022-08-11T13:01:05;4.57;;;2.20;;
3627;SDS011;1830;49.000;12.074;2022-08-11T13:03:50;5.03;;;2.63;;
3627;SDS011;1830;49.000;12.074;2022-08-11T13:06:36;4.80;;;2.38;;
3627;SDS011;1830;49.000;12.074;2022-08-11T13:09:03;13.65;;;2.50;;
3627;SDS011;1830;49.000;12.074;2022-08-11T13:11:32;4.03;;;2.40;;
3627;SDS011;1830;49.000;12.074;2022-08-11T13:14:17;7.40;;;2.38;;
3627;SDS011;1830;49.000;12.074;2022-08-11T13:16:44;8.60;;;2.42;;
3627;SDS011;1830;49.000;12.074;2022-08-11T13:19:30;7.13;;;2.88;;
3627;SDS011;1830;49.000;12.074;2022-08-11T13:21:59;7.25;;;2.85;;
3627;SDS011;1830;49.000;12.074;2022-08-11T13:24:31;3.28;;;2.20;;
3627;SDS011;1830;49.000;12.074;2022-08-11T13:26:59;3.85;;;2.00;;
3627;SDS011;1830;49.000;12.074;2022-08-11T13:29:26;6.53;;;2.60;;
3627;SDS011;1830;49.000;12.074;2022-08-11T13:31:55;4.88;;;2.15;;
3627;SDS011;1830;49.000;12.074;2022-08-11T13:34:23;3.08;;;2.30;;
3627;SDS011;1830;49.000;12.074;2022-08-11T13:36:53;12.07;;;2.30;;
3627;SDS011;1830;49.000;12.074;2022-08-11T13:39:24;4.22;;;2.80;;
3627;SDS011;1830;49.000;12.074;2022-08-11T13:41:52;5.22;;;2.30;;
3627;SDS011;1830;49.000;12.074;2022-08-11T13:44:20;3.92;;;1.90;;
3627;SDS011;1830;49.000;12.074;2022-08-11T13:46:51;6.88;;;2.25;;
3627;SDS011;1830;49.000;12.074;2022-08-11T13:49:19;5.22;;;2.45;;
3627;SDS011;1830;49.000;12.074;2022-08-11T13:51:46;6.70;;;2.05;;
3627;SDS011;1830;49.000;12.074;2022-08-11T13:54:15;5.13;;;1.80;;
3627;SDS011;1830;49.000;12.074;2022-08-11T13:56:46;5.25;;;2.47;;
3627;SDS011;1830;49.000;12.074;2022-08-11T13:59:20;8.45;;;2.17;;
3627;SDS011;1830;49.000;12.074;2022-08-11T14:01:48;2.47;;;1.95;;
3627;SDS011;1830;49.000;12.074;2022-08-11T14:04:19;3.40;;;2.13;;
3627;SDS011;1830;49.000;12.074;2022-08-11T14:06:52;7.68;;;2.20;;
3627;SDS011;1830;49.000;12.074;2022-08-11T14:09:24;8.07;;;2.05;;
3627;SDS011;1830;49.000;12.074;2022-08-11T14:11:55;8.02;;;1.98;;
3627;SDS011;1830;49.000;12.074;2022-08-11T14:14:42;6.47;;;2.13;;
3627;SDS011;1830;49.000;12.074;2022-08-11T14:17:13;3.83;;;2.05;;
3627;SDS011;1830;49.000;12.074;2022-08-11T14:19:42;9.90;;;2.08;;
3627;SDS011;1830;49.000;12.074;2022-08-11T14:22:12;5.22;;;2.95;;
3627;SDS011;1830;49.000;12.074;2022-08-11T14:24:41;5.60;;;2.40;;
3627;SDS011;1830;49.000;12.074;2022-08-11T14:27:15;4.63;;;2.38;;
3627;SDS011;1830;49.000;12.074;2022-08-11T14:29:43;3.22;;;2.15;;
3627;SDS011;1830;49.000;12.074;2022-08-11T14:32:12;3.00;;;2.08;;
3627;SDS011;1830;49.000;12.074;2022-08-11T14:34:40;2.20;;;1.80;;
3627;SDS011;1830;49.000;12.074;2022-08-11T14:37:08;8.48;;;2.08;;
3627;SDS011;1830;49.000;12.074;2022-08-11T14:39:39;6.57;;;2.00;;
3627;SDS011;1830;49.000;12.074;2022-08-11T14:42:09;2.85;;;2.10;;
3627;SDS011;1830;49.000;12.074;2022-08-11T14:44:59;7.10;;;2.03;;
3627;SDS011;1830;49.000;12.074;2022-08-11T14:47:55;5.28;;;2.00;;
3627;SDS011;1830;49.000;12.074;2022-08-11T14:50:27;7.35;;;2.40;;
3627;SDS011;1830;49.000;12.074;2022-08-11T14:52:56;3.55;;;2.60;;
3627;SDS011;1830;49.000;12.074;2022-08-11T14:55:28;10.52;;;2.20;;
3627;SDS011;1830;49.000;12.074;2022-08-11T14:58:15;6.22;;;2.42;;
3627;SDS011;1830;49.000;12.074;2022-08-11T15:00:45;5.47;;;2.35;;
3627;SDS011;1830;49.000;12.074;2022-08-11T15:03:14;6.63;;;2.78;;
3627;SDS011;1830;49.000;12.074;2022-08-11T15:05:43;7.53;;;2.20;;
3627;SDS011;1830;49.000;12.074;2022-08-11T15:08:16;5.05;;;2.72;;
3627;SDS011;1830;49.000;12.074;2022-08-11T15:10:44;12.10;;;2.80;;
3627;SDS011;1830;49.000;12.074;2022-08-11T15:13:11;7.97;;;2.72;;
3627;SDS011;1830;49.000;12.074;2022-08-11T15:15:42;3.90;;;2.08;;
3627;SDS011;1830;49.000;12.074;2022-08-11T15:18:28;4.18;;;2.50;;
3627;SDS011;1830;49.000;12.074;2022-08-11T15:20:57;4.90;;;2.72;;
3627;SDS011;1830;49.000;12.074;2022-08-11T15:23:41;5.50;;;2.58;;
3627;SDS011;1830;49.000;12.074;2022-08-11T15:26:28;6.00;;;2.50;;
3627;SDS011;1830;49.000;12.074;2022-08-11T15:29:17;5.10;;;2.58;;
3627;SDS011;1830;49.000;12.074;2022-08-11T15:32:06;6.32;;;2.63;;
3627;SDS011;1830;49.000;12.074;2022-08-11T15:34:55;3.63;;;2.53;;
3627;SDS011;1830;49.000;12.074;2022-08-11T15:37:42;5.65;;;2.58;;
3627;SDS011;1830;49.000;12.074;2022-08-11T15:40:12;8.02;;;2.83;;
3627;SDS011;1830;49.000;12.074;2022-08-11T15:43:03;4.95;;;2.25;;
3627;SDS011;1830;49.000;12.074;2022-08-11T15:45:52;6.30;;;2.65;;
3627;SDS011;1830;49.000;12.074;2022-08-11T15:48:29;8.32;;;2.50;;
3627;SDS011;1830;49.000;12.074;2022-08-11T15:51:02;3.88;;;2.65;;
3627;SDS011;1830;49.000;12.074;2022-08-11T15:53:37;6.13;;;2.58;;
3627;SDS011;1830;49.000;12.074;2022-08-11T15:56:07;4.78;;;2.58;;
3627;SDS011;1830;49.000;12.074;2022-08-11T15:58:37;7.75;;;2.50;;
3627;SDS011;1830;49.000;12.074;2022-08-11T16:01:24;4.22;;;2.47;;
3627;SDS011;1830;49.000;12.074;2022-08-11T16:04:15;3.33;;;2.10;;
3627;SDS011;1830;49.000;12.074;2022-08-11T16:06:44;8.05;;;2.20;;
3627;SDS011;1830;49.000;12.074;2022-08-11T16:12:01;3.35;;;2.78;;
3627;SDS011;1830;49.000;12.074;2022-08-11T16:14:32;5.10;;;2.40;;
3627;SDS011;1830;49.000;12.074;2022-08-11T16:17:18;7.40;;;2.65;;
3627;SDS011;1830;49.000;12.074;2022-08-11T16:19:48;5.78;;;2.45;;
3627;SDS011;1830;49.000;12.074;2022-08-11T16:22:20;7.20;;;2.40;;
3627;SDS011;1830;49.000;12.074;2022-08-11T16:24:58;5.60;;;2.20;;
3627;SDS011;1830;49.000;12.074;2022-08-11T16:27:26;13.20;;;2.40;;
3627;SDS011;1830;49.000;12.074;2022-08-11T16:29:57;5.70;;;2.53;;
3627;SDS011;1830;49.000;12.074;2022-08-11T16:32:25;13.20;;;3.05;;
3627;SDS011;1830;49.000;12.074;2022-08-11T16:34:59;4.07;;;2.42;;
3627;SDS011;1830;49.000;12.074;2022-08-11T16:37:48;10.13;;;2.63;;
3627;SDS011;1830;49.000;12.074;2022-08-11T16:40:34;3.28;;;2.65;;